Time;durP1;ratioP1;P1;durP2;ratioP2;P2;SDS_P1;SDS_P2;PMS_P1;PMS_P2;Temp;Humidity;BMP_temperature;BMP_pressure;BME280_temperature;BME280_humidity;BME280_pressure;Samples;Min_cycle;Max_cycle;Signal;HPM_P1;HPM_P2
2023/03/14 00:02:08;;;;;;;1.80;1.30;;;;;;;11.82;70.09;94843.81;5030433;28;20250;-70
2023/03/14 00:04:33;;;;;;;3.37;1.20;;;;;;;11.71;69.22;94849.00;5028830;28;20734;-70
2023/03/14 00:06:58;;;;;;;4.10;1.23;;;;;;;11.69;69.23;94855.34;5028536;28;20199;-69
2023/03/14 00:09:26;;;;;;;2.13;0.90;;;;;;;11.59;68.76;94850.75;5028826;28;20176;-69
2023/03/14 00:11:52;;;;;;;7.77;1.40;;;;;;;11.51;68.96;94853.09;5028741;28;20322;-69
2023/03/14 00:14:18;;;;;;;1.97;0.80;;;;;;;11.51;68.91;94844.41;5028822;28;20441;-70
2023/03/14 00:16:46;;;;;;;2.90;0.90;;;;;;;11.54;67.32;94852.88;5028811;28;20414;-69
2023/03/14 00:19:11;;;;;;;2.80;0.80;;;;;;;11.44;68.15;94836.94;5029010;28;20170;-70
2023/03/14 00:21:37;;;;;;;4.97;1.00;;;;;;;11.53;67.96;94832.81;5028954;28;20896;-69
2023/03/14 00:24:02;;;;;;;1.57;1.10;;;;;;;11.50;68.33;94830.41;5028763;28;20191;-70
2023/03/14 00:26:27;;;;;;;1.10;0.80;;;;;;;11.54;68.05;94817.88;5028338;28;20183;-69
2023/03/14 00:28:53;;;;;;;1.73;0.90;;;;;;;11.52;68.50;94807.47;5028457;28;20642;-69
2023/03/14 00:31:19;;;;;;;2.13;1.10;;;;;;;11.51;67.19;94789.22;5028169;28;20264;-69
2023/03/14 00:33:45;;;;;;;2.57;1.00;;;;;;;11.54;67.18;94795.06;5028199;28;20438;-70
2023/03/14 00:36:16;;;;;;;2.80;0.90;;;;;;;11.54;67.17;94794.25;5027852;28;20179;-70
2023/03/14 00:38:43;;;;;;;3.23;1.00;;;;;;;11.48;67.00;94777.16;5028041;28;20184;-69
2023/03/14 00:41:11;;;;;;;4.70;0.90;;;;;;;11.56;66.38;94777.41;5028064;28;20413;-71
2023/03/14 00:43:37;;;;;;;2.13;1.23;;;;;;;11.41;67.03;94762.81;5027019;28;20938;-69
2023/03/14 00:46:03;;;;;;;11.03;1.00;;;;;;;11.53;66.56;94758.44;5027586;28;20483;-69
2023/03/14 00:48:29;;;;;;;1.37;0.80;;;;;;;11.32;66.86;94760.84;5027770;28;20780;-70
2023/03/14 00:50:54;;;;;;;2.10;0.60;;;;;;;11.46;66.03;94750.16;5027634;28;20222;-68
2023/03/14 00:53:20;;;;;;;6.93;1.10;;;;;;;11.52;66.49;94741.81;5027889;28;20246;-69
2023/03/14 00:55:46;;;;;;;2.07;0.73;;;;;;;11.45;65.95;94732.72;5028363;28;20168;-69
2023/03/14 00:58:13;;;;;;;2.87;1.00;;;;;;;11.43;66.88;94697.84;5028453;28;20179;-70
2023/03/14 01:00:39;;;;;;;2.13;0.70;;;;;;;11.21;67.09;94673.16;5028533;28;20657;-71
2023/03/14 01:03:05;;;;;;;1.20;0.80;;;;;;;11.19;66.76;94674.25;5026232;28;20437;-71
2023/03/14 01:05:31;;;;;;;1.30;0.80;;;;;;;11.14;67.22;94640.44;5027300;28;20488;-70
2023/03/14 01:07:56;;;;;;;2.07;0.70;;;;;;;11.16;67.41;94614.09;5027234;28;20414;-69
2023/03/14 01:10:22;;;;;;;1.13;0.70;;;;;;;11.16;66.80;94633.31;5027253;28;20843;-69
2023/03/14 01:12:48;;;;;;;1.43;0.73;;;;;;;11.02;67.50;94638.75;5027161;28;20234;-69
2023/03/14 01:15:14;;;;;;;1.00;0.70;;;;;;;11.12;67.45;94652.00;5027061;28;20210;-69
2023/03/14 01:17:39;;;;;;;2.80;0.83;;;;;;;11.18;67.22;94657.66;5026886;28;20245;-69
2023/03/14 01:20:08;;;;;;;1.00;0.60;;;;;;;11.16;67.54;94643.81;5027204;28;20584;-69
2023/03/14 01:22:34;;;;;;;1.03;0.70;;;;;;;11.15;67.29;94662.28;5027450;28;20180;-69
2023/03/14 01:25:00;;;;;;;1.00;0.60;;;;;;;11.10;67.65;94657.41;5026881;28;20533;-69
2023/03/14 01:27:25;;;;;;;1.20;0.67;;;;;;;11.19;67.18;94651.44;5026706;28;20472;-69
2023/03/14 01:29:51;;;;;;;1.00;0.60;;;;;;;11.11;67.38;94632.81;5027112;28;20194;-69
2023/03/14 01:32:16;;;;;;;3.43;0.90;;;;;;;11.15;67.36;94618.50;5026880;28;20206;-70
2023/03/14 01:34:42;;;;;;;1.10;0.63;;;;;;;11.13;67.02;94615.16;5026903;28;20540;-70
2023/03/14 01:37:07;;;;;;;1.10;0.80;;;;;;;11.05;68.34;94620.13;5026756;28;20298;-69
2023/03/14 01:39:33;;;;;;;1.20;0.73;;;;;;;11.03;68.25;94616.78;5026902;28;20175;-69
2023/03/14 01:42:00;;;;;;;1.73;0.80;;;;;;;11.02;68.24;94615.94;5026911;28;20270;-68
2023/03/14 01:44:26;;;;;;;1.00;0.70;;;;;;;11.07;68.08;94612.97;5026882;28;20813;-68
2023/03/14 01:46:51;;;;;;;2.07;1.70;;;;;;;11.02;68.64;94604.63;5026329;28;20464;-67
2023/03/14 01:49:21;;;;;;;1.67;0.80;;;;;;;11.10;68.56;94606.66;5026517;28;20176;-70
2023/03/14 01:52:00;;;;;;;2.60;0.80;;;;;;;11.06;67.94;94608.69;5026362;28;20665;-70
2023/03/14 01:54:40;;;;;;;2.00;1.00;;;;;;;11.12;67.91;94613.47;5026513;28;20468;-69
2023/03/14 01:57:38;;;;;;;3.27;1.00;;;;;;;11.06;68.00;94616.56;5030496;28;20510;-70
2023/03/14 02:00:16;;;;;;;1.33;0.93;;;;;;;10.95;68.17;94613.91;5025871;28;20855;-69
2023/03/14 02:02:47;;;;;;;3.53;1.10;;;;;;;10.99;68.25;94610.94;5030573;28;20475;-69
2023/03/14 02:05:16;;;;;;;1.87;0.83;;;;;;;10.96;67.90;94607.69;5030569;28;20430;-69
2023/03/14 02:07:54;;;;;;;3.27;1.10;;;;;;;10.90;68.16;94597.66;5030427;28;20422;-69
2023/03/14 02:10:24;;;;;;;2.20;0.90;;;;;;;10.87;67.68;94609.22;5030752;28;20428;-68
2023/03/14 02:12:53;;;;;;;1.97;0.90;;;;;;;10.95;67.01;94619.16;5030487;28;20454;-68
2023/03/14 02:15:19;;;;;;;1.70;0.90;;;;;;;11.06;66.59;94608.69;5029085;28;20438;-69
2023/03/14 02:17:45;;;;;;;1.90;1.00;;;;;;;10.98;66.63;94598.78;5030945;28;20453;-69
2023/03/14 02:20:11;;;;;;;1.57;0.90;;;;;;;11.05;66.11;94596.50;5031063;28;20180;-68
2023/03/14 02:22:40;;;;;;;1.20;0.80;;;;;;;10.91;66.51;94601.94;5030499;28;20417;-68
2023/03/14 02:25:11;;;;;;;1.30;0.80;;;;;;;11.03;65.92;94595.78;5030140;28;20196;-68
2023/03/14 02:27:38;;;;;;;1.00;0.83;;;;;;;11.01;65.47;94588.03;5029840;28;20421;-68
2023/03/14 02:30:11;;;;;;;1.30;0.80;;;;;;;10.97;65.87;94591.00;5030174;28;20449;-69
2023/03/14 02:32:40;;;;;;;1.20;0.90;;;;;;;10.96;65.89;94584.06;5030465;28;20852;-69
2023/03/14 02:35:11;;;;;;;1.33;0.80;;;;;;;10.78;66.63;94575.78;5030239;28;21004;-68
2023/03/14 02:37:45;;;;;;;1.00;0.70;;;;;;;10.86;66.78;94578.66;5028266;28;20417;-68
2023/03/14 02:40:11;;;;;;;1.67;0.93;;;;;;;10.87;66.70;94569.84;5029979;28;20419;-69
2023/03/14 02:42:37;;;;;;;1.80;0.77;;;;;;;10.86;66.57;94560.28;5029821;28;20414;-68
2023/03/14 02:45:08;;;;;;;1.17;0.80;;;;;;;10.93;66.62;94560.69;5029582;28;20234;-69
2023/03/14 02:47:36;;;;;;;2.07;0.87;;;;;;;10.76;67.06;94568.03;5029537;28;20179;-69
2023/03/14 02:50:07;;;;;;;3.13;0.90;;;;;;;10.72;67.22;94577.06;5029766;28;20413;-68
2023/03/14 02:52:33;;;;;;;2.57;0.80;;;;;;;10.85;65.83;94573.56;5029651;28;21059;-69
2023/03/14 02:54:58;;;;;;;1.50;0.90;;;;;;;10.83;65.99;94591.19;5029449;28;20434;-69
2023/03/14 02:57:24;;;;;;;1.83;0.80;;;;;;;10.91;65.86;94580.94;5029318;28;20172;-69
2023/03/14 02:59:49;;;;;;;3.60;0.90;;;;;;;10.95;65.60;94585.84;5029653;28;20210;-69
2023/03/14 03:02:15;;;;;;;1.30;0.73;;;;;;;10.87;65.92;94576.91;5029404;28;20203;-70
2023/03/14 03:04:41;;;;;;;2.40;0.80;;;;;;;10.88;66.25;94575.94;5029449;28;20225;-70
2023/03/14 03:07:06;;;;;;;1.30;0.70;;;;;;;10.90;66.14;94574.88;5028703;28;20167;-70
2023/03/14 03:09:31;;;;;;;1.90;0.83;;;;;;;10.81;66.33;94562.44;5029309;28;20612;-70
2023/03/14 03:11:57;;;;;;;1.77;0.90;;;;;;;10.79;66.44;94557.31;5029281;28;20206;-69
2023/03/14 03:14:22;;;;;;;1.20;0.80;;;;;;;10.81;66.54;94555.38;5029299;28;20749;-70
2023/03/14 03:16:48;;;;;;;1.30;0.80;;;;;;;10.76;66.23;94547.03;5028845;28;20191;-70
2023/03/14 03:19:13;;;;;;;1.30;0.80;;;;;;;10.67;66.87;94542.47;5029363;28;20258;-70
2023/03/14 03:21:42;;;;;;;1.00;0.70;;;;;;;10.78;66.60;94539.88;5029056;28;20681;-70
2023/03/14 03:24:08;;;;;;;1.10;0.80;;;;;;;10.72;66.64;94532.47;5029100;28;20626;-70
2023/03/14 03:26:35;;;;;;;2.07;0.73;;;;;;;10.74;66.23;94530.56;5028823;28;20411;-70
2023/03/14 03:29:00;;;;;;;1.00;0.60;;;;;;;10.61;66.81;94519.31;5029124;28;20176;-70
2023/03/14 03:31:26;;;;;;;1.10;0.70;;;;;;;10.64;66.39;94511.22;5027410;28;21256;-69
2023/03/14 03:33:51;;;;;;;1.20;0.80;;;;;;;10.58;66.77;94501.16;5028999;28;20211;-70
2023/03/14 03:36:22;;;;;;;1.33;0.77;;;;;;;10.57;66.80;94499.50;5028887;28;20179;-70
2023/03/14 03:38:47;;;;;;;1.43;0.80;;;;;;;10.64;66.42;94505.16;5029296;28;20183;-70
2023/03/14 03:41:13;;;;;;;1.00;0.70;;;;;;;10.55;67.09;94501.41;5029093;28;20410;-70
2023/03/14 03:43:38;;;;;;;1.23;0.70;;;;;;;10.65;66.54;94506.81;5029069;28;20293;-70
2023/03/14 03:46:05;;;;;;;1.47;1.27;;;;;;;10.64;66.69;94505.16;5028400;28;20187;-68
2023/03/14 03:48:31;;;;;;;20.37;1.33;;;;;;;10.68;66.82;94504.81;5027367;28;20195;-70
2023/03/14 03:50:56;;;;;;;2.53;0.77;;;;;;;10.65;66.30;94512.06;5027150;28;20423;-68
2023/03/14 03:53:21;;;;;;;2.23;0.80;;;;;;;10.54;67.00;94505.00;5028586;28;20168;-69
2023/03/14 03:55:47;;;;;;;4.07;1.70;;;;;;;10.66;66.59;94504.06;5028445;28;20175;-70
2023/03/14 03:58:12;;;;;;;1.00;0.70;;;;;;;10.51;66.99;94513.06;5028704;28;20217;-68
2023/03/14 04:00:38;;;;;;;0.90;0.60;;;;;;;10.65;66.54;94514.69;5028478;28;20229;-70
2023/03/14 04:03:04;;;;;;;1.53;0.83;;;;;;;10.57;66.86;94513.47;5028640;28;20179;-69
2023/03/14 04:05:30;;;;;;;1.20;0.80;;;;;;;10.57;66.84;94520.50;5028361;28;20840;-69
2023/03/14 04:07:55;;;;;;;1.10;0.80;;;;;;;10.53;66.49;94500.69;5028092;28;20186;-69
2023/03/14 04:10:20;;;;;;;1.50;0.70;;;;;;;10.59;66.17;94502.84;5028327;28;20202;-69
2023/03/14 04:12:46;;;;;;;1.03;0.83;;;;;;;10.53;66.23;94492.81;5028314;28;20203;-69
2023/03/14 04:15:11;;;;;;;1.20;0.80;;;;;;;10.50;66.28;94501.75;5028242;28;20561;-69
2023/03/14 04:17:37;;;;;;;1.73;0.90;;;;;;;10.50;66.41;94508.78;5027952;28;20487;-69
2023/03/14 04:20:03;;;;;;;0.90;0.70;;;;;;;10.47;65.96;94504.59;5028212;28;20667;-69
2023/03/14 04:22:28;;;;;;;1.57;0.80;;;;;;;10.53;65.41;94490.19;5027971;28;20791;-69
2023/03/14 04:24:54;;;;;;;1.70;0.77;;;;;;;10.52;65.36;94491.97;5028016;28;20442;-69
2023/03/14 04:27:19;;;;;;;1.53;0.80;;;;;;;10.51;65.58;94490.31;5027609;28;20206;-68
2023/03/14 04:29:45;;;;;;;2.00;0.80;;;;;;;10.53;65.45;94488.41;5027756;28;20254;-68
2023/03/14 04:32:10;;;;;;;1.57;0.90;;;;;;;10.48;65.55;94487.06;5027560;28;20286;-69
2023/03/14 04:34:36;;;;;;;0.90;0.60;;;;;;;10.46;65.14;94481.09;5027856;28;20198;-69
2023/03/14 04:37:01;;;;;;;1.20;0.90;;;;;;;10.49;65.11;94470.41;5027810;28;20179;-69
2023/03/14 04:39:27;;;;;;;1.37;0.63;;;;;;;10.49;64.68;94473.88;5027987;28;20172;-69
2023/03/14 04:41:52;;;;;;;1.37;0.80;;;;;;;10.48;64.93;94479.22;5028352;28;20171;-68
2023/03/14 04:44:18;;;;;;;2.40;0.73;;;;;;;10.41;64.94;94467.50;5027852;28;20199;-69
2023/03/14 04:46:43;;;;;;;1.10;0.70;;;;;;;10.34;65.10;94460.09;5027133;28;20667;-68
2023/03/14 04:49:09;;;;;;;0.90;0.60;;;;;;;10.33;65.00;94466.28;5027650;28;20163;-69
2023/03/14 04:51:34;;;;;;;1.97;1.43;;;;;;;10.34;65.28;94470.56;5027324;28;20221;-70
2023/03/14 04:54:00;;;;;;;2.90;1.00;;;;;;;10.40;64.55;94465.84;5027358;28;20192;-70
2023/03/14 04:56:25;;;;;;;1.40;0.93;;;;;;;10.45;64.48;94453.22;5027265;28;20179;-69
2023/03/14 04:58:51;;;;;;;2.27;0.90;;;;;;;10.22;66.10;94455.72;5027603;28;20530;-68
2023/03/14 05:01:17;;;;;;;1.20;0.80;;;;;;;10.26;64.99;94438.81;5027196;28;20174;-69
2023/03/14 05:03:43;;;;;;;1.80;0.83;;;;;;;10.36;63.91;94425.91;5026919;28;20302;-68
2023/03/14 05:06:08;;;;;;;1.60;0.80;;;;;;;10.26;64.33;94428.34;5027027;28;20525;-68
2023/03/14 05:08:34;;;;;;;3.17;1.17;;;;;;;10.31;64.76;94421.00;5027077;28;20183;-68
2023/03/14 05:10:59;;;;;;;2.87;1.30;;;;;;;10.27;64.28;94418.69;5027409;28;20732;-70
2023/03/14 05:13:25;;;;;;;1.87;0.73;;;;;;;10.26;64.40;94417.84;5027654;28;20499;-69
2023/03/14 05:15:51;;;;;;;1.43;1.03;;;;;;;10.34;64.29;94423.38;5027133;28;20207;-70
2023/03/14 05:18:17;;;;;;;2.23;1.10;;;;;;;10.28;64.58;94423.84;5027540;28;20187;-70
2023/03/14 05:20:45;;;;;;;15.70;4.80;;;;;;;10.34;64.27;94423.38;5027309;28;20167;-70
2023/03/14 05:23:10;;;;;;;2.87;1.30;;;;;;;10.26;64.16;94412.59;5027071;28;20410;-70
2023/03/14 05:25:36;;;;;;;1.90;1.10;;;;;;;10.28;64.29;94416.00;5027284;28;20780;-71
2023/03/14 05:28:01;;;;;;;8.10;1.50;;;;;;;10.25;64.59;94420.56;5027029;28;20640;-70
2023/03/14 05:30:28;;;;;;;7.43;2.07;;;;;;;10.19;64.61;94411.41;5018281;28;21385;-69
2023/03/14 05:32:53;;;;;;;7.43;1.70;;;;;;;10.25;64.47;94423.19;5019067;28;20393;-70
2023/03/14 05:35:19;;;;;;;8.70;1.40;;;;;;;10.22;64.21;94410.31;5017530;28;20982;-69
2023/03/14 05:37:44;;;;;;;2.80;1.10;;;;;;;10.18;64.21;94409.69;5024111;28;20183;-69
2023/03/14 05:40:10;;;;;;;2.43;0.90;;;;;;;10.21;64.02;94406.88;5024659;28;20198;-71
2023/03/14 05:42:36;;;;;;;1.83;1.03;;;;;;;10.27;64.36;94413.44;5023823;28;20190;-71
2023/03/14 05:45:01;;;;;;;2.63;0.87;;;;;;;10.12;64.13;94404.94;5027548;28;20203;-70
2023/03/14 05:47:27;;;;;;;1.73;1.00;;;;;;;10.13;64.43;94401.34;5022483;28;20180;-69
2023/03/14 05:49:53;;;;;;;1.40;0.90;;;;;;;10.06;64.93;94400.13;5024412;28;20213;-70
2023/03/14 05:52:18;;;;;;;1.30;0.87;;;;;;;10.12;65.05;94394.44;5025328;28;21030;-70
2023/03/14 05:54:44;;;;;;;2.43;1.30;;;;;;;10.07;64.45;94392.19;5039359;28;20187;-69
2023/03/14 05:57:09;;;;;;;4.03;1.50;;;;;;;10.06;64.24;94389.66;5028797;28;20182;-70
2023/03/14 05:59:35;;;;;;;10.30;1.73;;;;;;;10.15;64.45;94387.19;5027698;28;20643;-70
2023/03/14 06:02:00;;;;;;;15.63;3.33;;;;;;;10.15;64.73;94388.97;5024574;28;20167;-69
2023/03/14 06:04:26;;;;;;;20.77;3.03;;;;;;;10.08;64.57;94379.91;5028672;28;21280;-69
2023/03/14 06:06:51;;;;;;;2.73;1.67;;;;;;;10.06;64.88;94379.16;5022237;28;20206;-70
2023/03/14 06:09:19;;;;;;;3.73;1.33;;;;;;;10.12;64.64;94381.34;5023455;28;20201;-69
2023/03/14 06:11:45;;;;;;;3.33;1.77;;;;;;;10.07;64.34;94380.84;5019521;28;20294;-68
2023/03/14 06:14:11;;;;;;;1.93;1.33;;;;;;;10.03;64.93;94379.41;5021570;28;20462;-68
2023/03/14 06:16:36;;;;;;;4.43;1.40;;;;;;;10.16;63.74;94370.53;5022694;28;20946;-69
2023/03/14 06:19:02;;;;;;;2.30;1.50;;;;;;;10.10;64.36;94375.38;5025104;28;20637;-71
2023/03/14 06:21:27;;;;;;;4.33;1.60;;;;;;;10.11;64.20;94377.91;5027637;28;20181;-68
2023/03/14 06:23:53;;;;;;;3.47;1.97;;;;;;;10.20;64.37;94370.28;5021524;28;20218;-70
2023/03/14 06:26:18;;;;;;;7.60;2.10;;;;;;;10.22;63.60;94366.59;5025360;28;20182;-71
2023/03/14 06:28:44;;;;;;;2.90;1.90;;;;;;;10.18;64.60;94357.28;5026222;28;20245;-70
2023/03/14 06:31:09;;;;;;;5.90;1.67;;;;;;;10.13;64.10;94359.41;5022873;28;20199;-70
2023/03/14 06:33:34;;;;;;;4.60;2.17;;;;;;;10.27;63.17;94367.09;5027413;28;20293;-71
2023/03/14 06:36:00;;;;;;;9.40;3.03;;;;;;;10.27;63.20;94374.94;5020190;28;20230;-70
2023/03/14 06:38:25;;;;;;;4.83;2.40;;;;;;;10.20;64.15;94370.28;5026414;28;20175;-70
2023/03/14 06:40:51;;;;;;;7.93;3.30;;;;;;;10.23;63.96;94384.00;5020658;28;20180;-70
2023/03/14 06:43:16;;;;;;;2.60;1.77;;;;;;;10.22;63.47;94389.34;5025308;28;20198;-70
2023/03/14 06:45:42;;;;;;;2.47;1.63;;;;;;;10.27;63.52;94385.44;5024882;28;20195;-70
2023/03/14 06:48:07;;;;;;;3.80;1.70;;;;;;;10.44;63.16;94389.47;5026591;28;20221;-68
2023/03/14 06:50:32;;;;;;;7.17;2.30;;;;;;;10.36;63.03;94384.78;5031356;28;20174;-70
2023/03/14 06:52:58;;;;;;;2.63;1.30;;;;;;;10.47;62.38;94388.41;5034169;28;20218;-69
2023/03/14 06:55:23;;;;;;;8.43;1.70;;;;;;;10.43;62.55;94392.19;5028035;28;20207;-70
2023/03/14 06:57:49;;;;;;;21.00;2.80;;;;;;;10.35;62.87;94390.97;5026499;28;20275;-68
2023/03/14 07:00:14;;;;;;;17.33;3.30;;;;;;;10.47;62.90;94396.25;5026083;28;20180;-68
2023/03/14 07:02:40;;;;;;;9.10;2.20;;;;;;;10.46;62.97;94398.03;5027039;28;20167;-70
2023/03/14 07:05:06;;;;;;;8.23;2.97;;;;;;;10.53;62.42;94403.66;5026662;28;20213;-69
2023/03/14 07:07:32;;;;;;;9.30;2.50;;;;;;;10.46;63.27;94405.06;5025825;28;20277;-69
2023/03/14 07:09:57;;;;;;;6.03;1.50;;;;;;;10.42;63.16;94407.09;5026398;28;20418;-67
2023/03/14 07:12:23;;;;;;;10.20;2.27;;;;;;;10.48;62.94;94406.63;5024062;28;20535;-69
2023/03/14 07:14:48;;;;;;;5.20;1.50;;;;;;;10.59;62.66;94418.94;5025505;28;20215;-68
2023/03/14 07:17:14;;;;;;;13.77;2.87;;;;;;;10.66;62.26;94420.13;5028016;28;20773;-69
2023/03/14 07:19:39;;;;;;;8.90;1.90;;;;;;;10.59;62.48;94419.75;5038283;28;20987;-69
2023/03/14 07:22:05;;;;;;;14.33;4.67;;;;;;;10.60;62.74;94418.78;5031101;28;20243;-68
2023/03/14 07:24:31;;;;;;;14.90;6.00;;;;;;;10.70;62.36;94421.59;5025396;28;20199;-69
2023/03/14 07:26:56;;;;;;;3.90;2.60;;;;;;;11.36;71.26;94421.72;5026552;28;20168;-70
2023/03/14 07:29:22;;;;;;;7.50;2.33;;;;;;;11.96;65.66;94424.88;5023890;28;20663;-69
2023/03/14 07:31:47;;;;;;;7.30;2.40;;;;;;;11.42;60.43;94420.41;5027848;28;20198;-69
2023/03/14 07:34:13;;;;;;;7.10;3.10;;;;;;;11.30;60.85;94419.56;5028946;28;20222;-70
2023/03/14 07:36:38;;;;;;;4.07;2.43;;;;;;;11.43;60.47;94422.06;5028304;28;20168;-69
2023/03/14 07:39:04;;;;;;;6.53;1.90;;;;;;;11.40;60.39;94419.69;5028932;28;20204;-71
2023/03/14 07:41:30;;;;;;;6.23;1.67;;;;;;;11.38;60.40;94422.41;5028769;28;20208;-69
2023/03/14 07:43:55;;;;;;;10.73;1.60;;;;;;;11.45;60.54;94415.72;5034130;28;20682;-68
2023/03/14 07:46:21;;;;;;;14.07;2.80;;;;;;;11.69;59.82;94419.97;5027672;28;20433;-70
2023/03/14 07:48:46;;;;;;;8.40;1.70;;;;;;;11.90;58.57;94411.38;5026864;28;20179;-69
2023/03/14 07:51:12;;;;;;;7.10;1.73;;;;;;;12.06;58.31;94414.44;5031789;28;20627;-70
2023/03/14 07:53:38;;;;;;;6.20;1.47;;;;;;;12.26;57.33;94413.66;5027916;28;20192;-71
2023/03/14 07:56:03;;;;;;;3.03;1.37;;;;;;;12.27;56.13;94406.59;5027965;28;20168;-70
2023/03/14 07:58:29;;;;;;;7.03;1.80;;;;;;;12.39;56.10;94412.63;5025780;28;20176;-70
2023/03/14 08:00:54;;;;;;;13.63;1.77;;;;;;;12.45;56.31;94412.13;5023527;28;20195;-68
2023/03/14 08:03:19;;;;;;;9.10;1.90;;;;;;;12.58;55.96;94415.38;5027921;28;20198;-69
2023/03/14 08:05:50;;;;;;;7.07;1.63;;;;;;;12.65;55.23;94419.16;5028236;28;20225;-69
2023/03/14 08:08:15;;;;;;;5.87;1.33;;;;;;;12.83;55.10;94423.88;5028096;28;20199;-69
2023/03/14 08:10:41;;;;;;;2.23;1.13;;;;;;;12.95;55.12;94416.72;5027806;28;20539;-69
2023/03/14 08:13:06;;;;;;;2.80;0.90;;;;;;;13.22;54.02;94416.16;5027778;28;20238;-69
2023/03/14 08:15:32;;;;;;;5.27;1.57;;;;;;;13.21;53.34;94422.41;5025345;28;20199;-71
2023/03/14 08:17:57;;;;;;;4.13;1.50;;;;;;;13.28;53.38;94427.03;5027443;28;20728;-69
2023/03/14 08:20:27;;;;;;;4.30;1.70;;;;;;;12.95;54.39;94427.25;5027895;28;20179;-69
2023/03/14 08:22:54;;;;;;;6.03;1.50;;;;;;;12.84;54.48;94423.72;5030134;28;20262;-69
2023/03/14 08:25:20;;;;;;;8.23;1.73;;;;;;;12.68;55.52;94411.03;5027774;28;20813;-69
2023/03/14 08:27:45;;;;;;;2.03;0.97;;;;;;;12.67;54.04;94406.72;5027887;28;20410;-70
2023/03/14 08:30:13;;;;;;;2.60;0.87;;;;;;;12.31;54.68;94405.38;5025998;28;20205;-68
2023/03/14 08:32:39;;;;;;;1.33;0.80;;;;;;;12.33;54.78;94403.47;5026496;28;20202;-69
2023/03/14 08:35:05;;;;;;;3.20;1.00;;;;;;;12.10;55.19;94402.72;5028123;28;21055;-70
2023/03/14 08:37:32;;;;;;;1.87;1.00;;;;;;;12.17;55.60;94400.41;5027270;28;20168;-69
2023/03/14 08:39:57;;;;;;;2.07;1.13;;;;;;;12.01;55.86;94400.84;5027043;28;20505;-69
2023/03/14 08:42:23;;;;;;;3.93;1.20;;;;;;;12.12;55.72;94395.53;5027313;28;20452;-69
2023/03/14 08:44:48;;;;;;;13.17;2.03;;;;;;;11.95;56.54;94404.81;5032188;28;20252;-69
2023/03/14 08:47:13;;;;;;;5.40;0.93;;;;;;;12.01;55.71;94406.91;5033716;28;20182;-70
2023/03/14 08:49:39;;;;;;;8.33;1.37;;;;;;;12.13;56.06;94406.88;5027662;28;20672;-68
2023/03/14 08:52:05;;;;;;;7.50;1.20;;;;;;;12.28;55.70;94409.09;5047464;28;20975;-69
2023/03/14 08:54:31;;;;;;;8.00;2.10;;;;;;;12.60;54.70;94405.56;5047425;28;20206;-69
2023/03/14 08:56:57;;;;;;;9.47;1.70;;;;;;;13.09;53.60;94393.50;5047339;28;20171;-70
2023/03/14 08:59:22;;;;;;;4.63;1.30;;;;;;;13.69;52.42;94385.69;5046238;28;20539;-70
2023/03/14 09:01:48;;;;;;;2.13;1.00;;;;;;;14.18;51.01;94381.31;5047442;28;20401;-69
2023/03/14 09:04:14;;;;;;;6.60;1.30;;;;;;;14.23;50.10;94375.63;5046839;28;20302;-70
2023/03/14 09:06:39;;;;;;;3.57;1.43;;;;;;;14.36;49.44;94364.75;5047781;28;20175;-70
2023/03/14 09:09:05;;;;;;;7.60;1.40;;;;;;;14.72;48.91;94372.97;5049014;28;20290;-67
2023/03/14 09:11:30;;;;;;;7.13;1.63;;;;;;;14.98;47.58;94366.06;5048110;28;20219;-71
2023/03/14 09:13:56;;;;;;;3.67;1.27;;;;;;;14.88;47.42;94362.63;5047595;28;20194;-70
2023/03/14 09:16:22;;;;;;;5.70;1.40;;;;;;;14.78;47.99;94378.47;5046388;28;20238;-69
2023/03/14 09:18:47;;;;;;;8.00;1.87;;;;;;;14.95;47.82;94371.66;5046411;28;20228;-69
2023/03/14 09:21:13;;;;;;;3.67;1.23;;;;;;;14.93;48.11;94372.75;5046506;28;20171;-69
2023/03/14 09:23:40;;;;;;;4.03;1.07;;;;;;;14.95;48.02;94376.06;5033136;28;20199;-69
2023/03/14 09:26:05;;;;;;;5.60;1.60;;;;;;;14.59;47.87;94387.28;5025952;28;20260;-70
2023/03/14 09:28:31;;;;;;;5.33;1.47;;;;;;;14.48;47.77;94387.41;5026506;28;20505;-70
2023/03/14 09:30:56;;;;;;;3.50;1.10;;;;;;;14.21;48.12;94388.09;5027015;28;20198;-70
2023/03/14 09:33:22;;;;;;;4.63;1.20;;;;;;;14.14;49.33;94387.81;5025185;28;20241;-69
2023/03/14 09:35:47;;;;;;;1.40;1.07;;;;;;;14.06;48.45;94387.69;5022057;28;20204;-70
2023/03/14 09:38:13;;;;;;;7.40;1.97;;;;;;;13.93;48.85;94384.47;5025961;28;20167;-68
2023/03/14 09:40:38;;;;;;;2.73;1.00;;;;;;;13.92;49.28;94390.72;5026568;28;20194;-67
2023/03/14 09:43:04;;;;;;;2.50;1.00;;;;;;;13.98;48.73;94391.03;5026115;28;20175;-69
2023/03/14 09:45:36;;;;;;;9.00;1.77;;;;;;;14.06;48.73;94389.50;5026983;28;20264;-68
2023/03/14 09:48:03;;;;;;;5.00;1.03;;;;;;;14.69;47.70;94397.00;5027055;28;20836;-67
2023/03/14 09:50:47;;;;;;;1.80;1.00;;;;;;;14.59;47.15;94392.56;5026932;28;20406;-68
2023/03/14 09:53:16;;;;;;;4.40;1.83;;;;;;;14.90;46.72;94392.34;5026491;28;20466;-68
2023/03/14 09:55:43;;;;;;;3.60;1.40;;;;;;;14.64;47.52;94391.31;5026743;28;20410;-68
2023/03/14 09:58:13;;;;;;;3.30;1.20;;;;;;;14.46;47.66;94386.72;5026430;28;20438;-68
2023/03/14 10:00:38;;;;;;;1.73;0.80;;;;;;;14.13;48.03;94394.09;5025140;28;20468;-68
2023/03/14 10:03:13;;;;;;;5.63;1.37;;;;;;;14.01;48.63;94391.69;5026473;28;20442;-68
2023/03/14 10:05:40;;;;;;;7.77;1.20;;;;;;;13.93;48.72;94395.84;5026044;28;20206;-68
2023/03/14 10:08:09;;;;;;;3.93;1.00;;;;;;;14.07;48.97;94388.50;5026339;28;20450;-68
2023/03/14 10:10:35;;;;;;;2.70;1.20;;;;;;;13.99;49.46;94397.13;5026478;28;20493;-67
2023/03/14 10:13:25;;;;;;;3.70;1.10;;;;;;;13.96;49.32;94386.81;5026360;28;20632;-67
2023/03/14 10:16:02;;;;;;;4.10;1.00;;;;;;;14.02;48.93;94388.09;5027050;28;20216;-69
2023/03/14 10:18:30;;;;;;;12.27;1.43;;;;;;;13.65;49.61;94386.91;5030265;28;20436;-70
2023/03/14 10:21:05;;;;;;;11.33;2.00;;;;;;;13.83;50.01;94387.09;5030557;28;20963;-70
2023/03/14 10:23:33;;;;;;;9.80;1.87;;;;;;;13.75;49.58;94379.88;5029925;28;20425;-69
2023/03/14 10:26:11;;;;;;;9.03;1.40;;;;;;;14.05;48.28;94387.81;5028280;28;20494;-70
2023/03/14 10:28:38;;;;;;;9.10;2.23;;;;;;;14.38;47.58;94378.66;5028350;28;20443;-72
2023/03/14 10:31:04;;;;;;;5.17;1.20;;;;;;;14.28;47.42;94377.84;5020371;28;20423;-70
2023/03/14 10:33:33;;;;;;;3.90;1.30;;;;;;;14.14;48.03;94387.81;5019565;28;20954;-70
2023/03/14 10:36:02;;;;;;;2.47;1.10;;;;;;;14.22;48.04;94383.66;5030102;28;20167;-70
2023/03/14 10:38:37;;;;;;;4.97;1.20;;;;;;;14.70;46.83;94378.38;5030191;28;21186;-70
2023/03/14 10:41:17;;;;;;;5.13;2.33;;;;;;;14.66;46.33;94379.63;5030010;28;20397;-69
2023/03/14 10:43:43;;;;;;;6.90;2.00;;;;;;;14.56;46.60;94386.72;5027184;28;20527;-69
2023/03/14 10:46:13;;;;;;;3.60;1.30;;;;;;;14.48;46.84;94384.78;5009467;28;20795;-69
2023/03/14 10:48:42;;;;;;;8.67;1.50;;;;;;;14.54;46.53;94378.13;5013437;28;20503;-70
2023/03/14 10:51:29;;;;;;;5.43;0.90;;;;;;;14.58;46.87;94377.69;5029276;28;20418;-70
2023/03/14 10:54:00;;;;;;;7.37;1.23;;;;;;;14.96;46.06;94386.50;5029430;28;20462;-69
2023/03/14 10:56:26;;;;;;;6.90;1.20;;;;;;;15.13;45.90;94378.81;5029193;28;20414;-69
2023/03/14 10:59:03;;;;;;;3.30;1.07;;;;;;;15.20;48.14;94380.72;5029307;28;20412;-69
2023/03/14 11:01:34;;;;;;;1.40;0.70;;;;;;;15.42;45.18;94378.69;5029311;28;20414;-70
2023/03/14 11:04:31;;;;;;;3.43;0.90;;;;;;;15.25;45.60;94391.69;5029199;28;20914;-70
2023/03/14 11:07:26;;;;;;;4.40;1.00;;;;;;;15.08;45.88;94389.00;5019735;28;20437;-69
2023/03/14 11:10:00;;;;;;;2.23;0.97;;;;;;;14.79;46.07;94392.53;5029078;28;20418;-70
2023/03/14 11:13:02;;;;;;;5.50;1.40;;;;;;;14.58;46.82;94398.81;5029510;28;20966;-70
2023/03/14 11:15:45;;;;;;;1.90;0.77;;;;;;;14.55;46.93;94401.75;5027964;28;20437;-70
2023/03/14 11:18:33;;;;;;;3.10;1.10;;;;;;;15.29;50.91;94394.88;5029770;28;20414;-70
2023/03/14 11:21:04;;;;;;;7.00;1.60;;;;;;;15.52;50.37;94389.22;5029228;28;20403;-70
2023/03/14 11:23:36;;;;;;;5.90;1.10;;;;;;;15.46;47.31;94391.47;5029483;28;20402;-70
2023/03/14 11:26:32;;;;;;;14.13;1.47;;;;;;;15.62;47.42;94388.19;5028945;28;20402;-69
2023/03/14 11:29:12;;;;;;;6.87;1.33;;;;;;;15.60;48.20;94392.78;5028530;28;20402;-70
2023/03/14 11:31:44;;;;;;;25.77;3.10;;;;;;;15.55;46.34;94395.03;5014532;28;20462;-68
2023/03/14 11:34:54;;;;;;;5.13;1.10;;;;;;;15.41;47.42;94401.66;5023708;28;20954;-69